Time;durP1;ratioP1;P1;durP2;ratioP2;P2;SDS_P1;SDS_P2;PMS_P1;PMS_P2;Temp;Humidity;BMP_temperature;BMP_pressure;BME280_temperature;BME280_humidity;BME280_pressure;Samples;Min_cycle;Max_cycle;Signal;HPM_P1;HPM_P2
2022/06/01 00:00:29;;;;;;;2.22;2.10;;;;;;;;;;5063488;28;20207;-69
2022/06/01 00:02:55;;;;;;;2.50;2.30;;;;;;;;;;5063487;28;20197;-69
2022/06/01 00:05:21;;;;;;;2.60;2.28;;;;;;;;;;5062954;28;20225;-69
2022/06/01 00:07:48;;;;;;;2.47;2.28;;;;;;;;;;5062958;28;20196;-68
2022/06/01 00:10:15;;;;;;;2.47;2.28;;;;;;;;;;5063408;28;20197;-69
2022/06/01 00:12:41;;;;;;;2.78;2.25;;;;;;;;;;5063270;28;20524;-69
2022/06/01 00:15:09;;;;;;;3.53;2.28;;;;;;;;;;5063269;28;20205;-69
2022/06/01 00:17:36;;;;;;;2.40;2.20;;;;;;;;;;5062901;28;20504;-69
2022/06/01 00:20:02;;;;;;;2.42;2.22;;;;;;;;;;5062977;28;20201;-69
2022/06/01 00:22:29;;;;;;;6.28;2.60;;;;;;;;;;5062883;28;20204;-69
2022/06/01 00:24:55;;;;;;;2.80;2.60;;;;;;;;;;5063050;28;20221;-69
2022/06/01 00:27:21;;;;;;;2.25;2.15;;;;;;;;;;5062737;28;20197;-69
2022/06/01 00:29:48;;;;;;;3.42;2.50;;;;;;;;;;5062964;28;20205;-69
2022/06/01 00:32:15;;;;;;;2.42;2.30;;;;;;;;;;5062794;28;20204;-69
2022/06/01 00:34:43;;;;;;;2.90;2.10;;;;;;;;;;5062699;28;20193;-69
2022/06/01 00:37:09;;;;;;;4.20;2.00;;;;;;;;;;5062348;28;20205;-69
2022/06/01 00:39:36;;;;;;;2.55;2.42;;;;;;;;;;5062871;28;20204;-69
2022/06/01 00:42:09;;;;;;;2.20;2.00;;;;;;;;;;5062667;28;20197;-69
2022/06/01 00:44:35;;;;;;;2.83;2.38;;;;;;;;;;5062604;28;20217;-69
2022/06/01 00:47:01;;;;;;;3.92;2.50;;;;;;;;;;5062687;28;20204;-69
2022/06/01 00:49:29;;;;;;;1.98;1.98;;;;;;;;;;5062250;28;20397;-69
2022/06/01 00:51:57;;;;;;;2.55;2.25;;;;;;;;;;5061820;28;20193;-69
2022/06/01 00:54:23;;;;;;;3.13;2.55;;;;;;;;;;5062498;28;20207;-69
2022/06/01 00:56:53;;;;;;;2.10;2.00;;;;;;;;;;5062220;28;20201;-69
2022/06/01 00:59:20;;;;;;;2.40;2.20;;;;;;;;;;5062501;28;20189;-69
2022/06/01 01:01:47;;;;;;;2.53;2.38;;;;;;;;;;5062318;28;20230;-69
2022/06/01 01:04:14;;;;;;;2.67;2.20;;;;;;;;;;5062044;28;20229;-69
2022/06/01 01:06:41;;;;;;;4.43;2.08;;;;;;;;;;5061218;28;20217;-69
2022/06/01 01:09:10;;;;;;;3.25;2.50;;;;;;;;;;5062190;28;20197;-69
2022/06/01 01:11:40;;;;;;;3.53;2.38;;;;;;;;;;5062423;28;20196;-69
2022/06/01 01:14:07;;;;;;;2.75;2.55;;;;;;;;;;5062341;28;20203;-69
2022/06/01 01:16:34;;;;;;;3.08;2.30;;;;;;;;;;5061870;28;20243;-69
2022/06/01 01:19:01;;;;;;;3.67;2.50;;;;;;;;;;5062301;28;20287;-69
2022/06/01 01:21:35;;;;;;;2.47;2.15;;;;;;;;;;5062146;28;20238;-69
2022/06/01 01:24:07;;;;;;;2.80;2.70;;;;;;;;;;5061983;28;20531;-69
2022/06/01 01:26:36;;;;;;;2.97;2.60;;;;;;;;;;5062117;28;20520;-69
2022/06/01 01:29:09;;;;;;;2.42;2.33;;;;;;;;;;5062080;28;20201;-69
2022/06/01 01:31:35;;;;;;;2.50;2.40;;;;;;;;;;5062020;28;20196;-69
2022/06/01 01:34:02;;;;;;;2.90;2.67;;;;;;;;;;5061973;28;20428;-69
2022/06/01 01:36:31;;;;;;;3.47;2.30;;;;;;;;;;5061865;28;20221;-69
2022/06/01 01:39:00;;;;;;;2.60;2.50;;;;;;;;;;5062173;28;20197;-69
2022/06/01 01:41:27;;;;;;;2.25;2.08;;;;;;;;;;5061927;28;20197;-69
2022/06/01 01:46:58;;;;;;;2.83;2.63;;;;;;;;;;5041336;28;20196;-69
2022/06/01 01:49:25;;;;;;;2.65;2.47;;;;;;;;;;5042001;28;20206;-69
2022/06/01 01:51:53;;;;;;;3.33;3.05;;;;;;;;;;5041818;28;20198;-69
2022/06/01 01:54:24;;;;;;;3.05;2.60;;;;;;;;;;5041994;28;20198;-68
2022/06/01 01:57:00;;;;;;;2.53;2.42;;;;;;;;;;5041902;28;20669;-68
2022/06/01 01:59:36;;;;;;;3.40;2.40;;;;;;;;;;5041967;28;20198;-69
2022/06/01 02:02:07;;;;;;;2.40;2.30;;;;;;;;;;5041797;28;20388;-69
2022/06/01 02:07:25;;;;;;;2.80;2.70;;;;;;;;;;5045383;28;20193;-69
2022/06/01 02:12:44;;;;;;;3.95;2.38;;;;;;;;;;5045377;28;20192;-68
2022/06/01 02:15:13;;;;;;;5.38;2.88;;;;;;;;;;5045645;28;20501;-69
2022/06/01 02:17:48;;;;;;;3.80;2.83;;;;;;;;;;5045185;28;20198;-69
2022/06/01 02:20:18;;;;;;;3.13;2.33;;;;;;;;;;5045295;28;20204;-69
2022/06/01 02:22:45;;;;;;;3.72;2.55;;;;;;;;;;5045360;28;20213;-69
2022/06/01 02:25:12;;;;;;;3.47;2.70;;;;;;;;;;5045012;28;20218;-69
2022/06/01 02:27:39;;;;;;;3.55;2.58;;;;;;;;;;5045107;28;20202;-69
2022/06/01 02:30:07;;;;;;;2.55;2.45;;;;;;;;;;5045219;28;20198;-69
2022/06/01 02:32:34;;;;;;;2.72;2.53;;;;;;;;;;5045178;28;20198;-69
2022/06/01 02:35:03;;;;;;;3.83;2.42;;;;;;;;;;5045046;28;20194;-69
2022/06/01 02:37:30;;;;;;;2.78;2.50;;;;;;;;;;5044733;28;20213;-69
2022/06/01 02:39:57;;;;;;;2.53;2.33;;;;;;;;;;5045219;28;20230;-69
2022/06/01 02:42:26;;;;;;;2.67;2.50;;;;;;;;;;5044971;28;20197;-68
2022/06/01 02:44:53;;;;;;;2.90;2.70;;;;;;;;;;5044933;28;20412;-69
2022/06/01 02:47:19;;;;;;;2.75;2.58;;;;;;;;;;5044740;28;20493;-69
2022/06/01 02:49:46;;;;;;;2.45;2.35;;;;;;;;;;5044783;28;20201;-69
2022/06/01 02:52:13;;;;;;;7.90;2.63;;;;;;;;;;5044595;28;20204;-69
2022/06/01 02:54:40;;;;;;;3.00;2.70;;;;;;;;;;5044939;28;20197;-69
2022/06/01 02:57:07;;;;;;;3.03;2.55;;;;;;;;;;5044617;28;20206;-69
2022/06/01 02:59:33;;;;;;;2.67;2.40;;;;;;;;;;5044401;28;20204;-69
2022/06/01 03:02:00;;;;;;;2.75;2.53;;;;;;;;;;5044479;28;20205;-68
2022/06/01 03:04:26;;;;;;;4.63;2.55;;;;;;;;;;5044461;28;20213;-69
2022/06/01 03:06:53;;;;;;;2.38;2.28;;;;;;;;;;5044075;28;20305;-69
2022/06/01 03:09:20;;;;;;;3.67;2.50;;;;;;;;;;5044451;28;20197;-69
2022/06/01 03:11:47;;;;;;;2.75;2.55;;;;;;;;;;5044495;28;20396;-69
2022/06/01 03:14:13;;;;;;;3.85;2.65;;;;;;;;;;5043971;28;20506;-69
2022/06/01 03:16:39;;;;;;;2.83;2.63;;;;;;;;;;5044085;28;20201;-69
2022/06/01 03:19:05;;;;;;;2.65;2.35;;;;;;;;;;5044195;28;20201;-68
2022/06/01 03:21:32;;;;;;;2.40;2.30;;;;;;;;;;5044049;28;20202;-68
2022/06/01 03:23:58;;;;;;;2.67;2.33;;;;;;;;;;5044087;28;20460;-69
2022/06/01 03:26:26;;;;;;;2.60;2.15;;;;;;;;;;5043955;28;20229;-69
2022/06/01 03:28:52;;;;;;;2.33;2.22;;;;;;;;;;5043996;28;20205;-69
2022/06/01 03:31:18;;;;;;;2.53;2.38;;;;;;;;;;5044032;28;20205;-68
2022/06/01 03:33:44;;;;;;;3.03;2.80;;;;;;;;;;5043949;28;20205;-69
2022/06/01 03:36:11;;;;;;;4.18;2.88;;;;;;;;;;5043705;28;20198;-69
2022/06/01 03:38:37;;;;;;;3.20;2.58;;;;;;;;;;5043951;28;20205;-69
2022/06/01 03:41:03;;;;;;;3.08;2.83;;;;;;;;;;5043982;28;20198;-69
2022/06/01 03:45:55;;;;;;;4.63;2.70;;;;;;;;;;5043885;28;20204;-68
2022/06/01 03:46:17;;;;;;;2.78;2.58;;;;;;;;;;5043206;28;20256;-69
2022/06/01 03:48:43;;;;;;;3.33;2.67;;;;;;;;;;5043902;28;20202;-69
2022/06/01 03:51:09;;;;;;;2.22;2.13;;;;;;;;;;5043699;28;20243;-68
2022/06/01 03:53:36;;;;;;;2.58;2.38;;;;;;;;;;5043827;28;20198;-69
2022/06/01 03:56:02;;;;;;;2.55;2.45;;;;;;;;;;5043375;28;20201;-69
2022/06/01 03:58:29;;;;;;;3.17;2.90;;;;;;;;;;5043457;28;20561;-69
2022/06/01 04:00:57;;;;;;;4.30;2.65;;;;;;;;;;5043257;28;20529;-69
2022/06/01 04:03:23;;;;;;;2.63;2.55;;;;;;;;;;5043950;28;20520;-69
2022/06/01 04:05:50;;;;;;;3.60;2.90;;;;;;;;;;5043052;28;20272;-68
2022/06/01 04:08:16;;;;;;;2.63;2.42;;;;;;;;;;5043221;28;20205;-69
2022/06/01 04:10:44;;;;;;;2.35;2.20;;;;;;;;;;5043238;28;20197;-69
2022/06/01 04:13:10;;;;;;;2.90;2.70;;;;;;;;;;5043207;28;20516;-68
2022/06/01 04:15:36;;;;;;;3.20;2.58;;;;;;;;;;5042994;28;20452;-68
2022/06/01 04:18:04;;;;;;;3.20;2.42;;;;;;;;;;5043024;28;20198;-68
2022/06/01 04:20:30;;;;;;;2.83;2.20;;;;;;;;;;5042980;28;20198;-68
2022/06/01 04:22:58;;;;;;;2.65;2.38;;;;;;;;;;5042877;28;20198;-68
2022/06/01 04:25:24;;;;;;;3.22;2.88;;;;;;;;;;5043250;28;20218;-68
2022/06/01 04:27:51;;;;;;;2.83;2.42;;;;;;;;;;5041973;28;20198;-68
2022/06/01 04:30:18;;;;;;;4.47;3.00;;;;;;;;;;5042758;28;20206;-68
2022/06/01 04:32:45;;;;;;;2.45;2.35;;;;;;;;;;5042978;28;20217;-68
2022/06/01 04:35:13;;;;;;;3.03;2.78;;;;;;;;;;5042909;28;20201;-68
2022/06/01 04:37:39;;;;;;;2.97;2.83;;;;;;;;;;5042511;28;20555;-68
2022/06/01 04:40:06;;;;;;;4.05;3.00;;;;;;;;;;5042714;28;20432;-68
2022/06/01 04:42:34;;;;;;;3.13;2.90;;;;;;;;;;5042560;28;20205;-68
2022/06/01 04:45:00;;;;;;;2.67;2.42;;;;;;;;;;5042519;28;20455;-68
2022/06/01 04:47:26;;;;;;;2.50;2.40;;;;;;;;;;5042397;28;20190;-68
2022/06/01 04:49:53;;;;;;;3.08;2.85;;;;;;;;;;5042690;28;20198;-68
2022/06/01 04:52:20;;;;;;;3.90;2.92;;;;;;;;;;5042583;28;20198;-68
2022/06/01 04:54:47;;;;;;;3.35;2.70;;;;;;;;;;5042313;28;20206;-68
2022/06/01 04:57:13;;;;;;;3.40;3.20;;;;;;;;;;5042010;28;20193;-68
2022/06/01 04:59:39;;;;;;;3.45;3.15;;;;;;;;;;5042560;28;20367;-68
2022/06/01 05:02:06;;;;;;;3.50;3.28;;;;;;;;;;5042783;28;20198;-69
2022/06/01 05:04:32;;;;;;;3.90;3.60;;;;;;;;;;5042211;28;20212;-68
2022/06/01 05:07:00;;;;;;;4.18;3.88;;;;;;;;;;5042006;28;20225;-68
2022/06/01 05:09:28;;;;;;;3.92;3.60;;;;;;;;;;5042067;28;20197;-68
2022/06/01 05:11:54;;;;;;;4.28;3.50;;;;;;;;;;5042031;28;20202;-68
2022/06/01 05:14:20;;;;;;;6.20;5.60;;;;;;;;;;5042167;28;20205;-68
2022/06/01 05:16:47;;;;;;;6.43;4.03;;;;;;;;;;5042143;28;20194;-68
2022/06/01 05:19:13;;;;;;;5.50;4.15;;;;;;;;;;5042287;28;20202;-68
2022/06/01 05:21:39;;;;;;;4.13;3.78;;;;;;;;;;5042632;28;20202;-68
2022/06/01 05:24:06;;;;;;;3.72;3.50;;;;;;;;;;5041641;28;20509;-68
2022/06/01 05:26:34;;;;;;;4.00;3.25;;;;;;;;;;5041290;28;20229;-68
2022/06/01 05:29:00;;;;;;;3.17;2.97;;;;;;;;;;5041768;28;20520;-68
2022/06/01 05:31:26;;;;;;;3.17;2.97;;;;;;;;;;5041620;28;20201;-68
2022/06/01 05:33:53;;;;;;;3.45;3.25;;;;;;;;;;5041782;28;20198;-67
2022/06/01 05:36:19;;;;;;;5.13;2.90;;;;;;;;;;5046418;28;20473;-67
2022/06/01 05:38:46;;;;;;;3.80;3.35;;;;;;;;;;5057326;28;20204;-67
2022/06/01 05:41:13;;;;;;;3.40;3.10;;;;;;;;;;5054370;28;20264;-67
2022/06/01 05:43:41;;;;;;;3.15;2.95;;;;;;;;;;5045043;28;20221;-67
2022/06/01 05:46:07;;;;;;;3.30;3.10;;;;;;;;;;5058820;28;20229;-67
2022/06/01 05:48:33;;;;;;;3.10;2.90;;;;;;;;;;5059783;28;20209;-67
2022/06/01 05:51:00;;;;;;;5.40;3.30;;;;;;;;;;5059072;28;20228;-67
2022/06/01 05:53:26;;;;;;;3.28;3.05;;;;;;;;;;5051154;28;20216;-67
2022/06/01 05:55:53;;;;;;;7.40;3.10;;;;;;;;;;5049974;28;20205;-67
2022/06/01 05:58:20;;;;;;;3.20;2.90;;;;;;;;;;5042347;28;20210;-67
2022/06/01 06:00:49;;;;;;;3.35;3.10;;;;;;;;;;5039289;28;20210;-67
2022/06/01 06:03:16;;;;;;;3.00;2.80;;;;;;;;;;5039056;28;20218;-67
2022/06/01 06:08:26;;;;;;;3.67;3.40;;;;;;;;;;5039018;28;20213;-67
2022/06/01 06:10:53;;;;;;;5.60;2.88;;;;;;;;;;5056626;28;20217;-67
2022/06/01 06:13:20;;;;;;;3.10;2.80;;;;;;;;;;5057129;28;20543;-67
2022/06/01 06:15:48;;;;;;;2.70;2.50;;;;;;;;;;5059648;28;20205;-67
2022/06/01 06:18:15;;;;;;;2.90;2.60;;;;;;;;;;5058843;28;20213;-68
2022/06/01 06:20:41;;;;;;;3.03;2.83;;;;;;;;;;5059504;28;20274;-68
2022/06/01 06:23:08;;;;;;;4.07;2.40;;;;;;;;;;5059519;28;20216;-68
2022/06/01 06:25:34;;;;;;;3.28;2.83;;;;;;;;;;5040389;28;20206;-68
2022/06/01 06:28:00;;;;;;;3.20;2.90;;;;;;;;;;5039584;28;20209;-68
2022/06/01 06:30:26;;;;;;;5.70;3.03;;;;;;;;;;5049302;28;20209;-58
2022/06/01 06:32:54;;;;;;;3.35;3.03;;;;;;;;;;5059331;28;20220;-59
2022/06/01 06:35:20;;;;;;;3.20;2.90;;;;;;;;;;5045572;28;20217;-58
2022/06/01 06:37:47;;;;;;;2.72;2.53;;;;;;;;;;5039275;28;20206;-59
2022/06/01 06:40:13;;;;;;;4.35;2.80;;;;;;;;;;5039452;28;20213;-60
2022/06/01 06:42:40;;;;;;;2.60;2.50;;;;;;;;;;5039467;28;20421;-59
2022/06/01 06:45:07;;;;;;;2.53;2.33;;;;;;;;;;5038632;28;20218;-60
2022/06/01 06:47:33;;;;;;;6.35;2.67;;;;;;;;;;5038319;28;20233;-59
2022/06/01 06:50:01;;;;;;;5.30;2.65;;;;;;;;;;5040940;28;20239;-60
2022/06/01 06:52:27;;;;;;;3.15;1.90;;;;;;;;;;5058567;28;20209;-58
2022/06/01 06:54:54;;;;;;;2.25;2.15;;;;;;;;;;5057907;28;20251;-60
2022/06/01 06:57:20;;;;;;;3.58;2.63;;;;;;;;;;5058237;28;20248;-59
2022/06/01 06:59:48;;;;;;;4.57;2.55;;;;;;;;;;5058440;28;20209;-59
2022/06/01 07:02:15;;;;;;;2.75;1.80;;;;;;;;;;5058409;28;20280;-60
2022/06/01 07:04:41;;;;;;;4.20;2.15;;;;;;;;;;5058464;28;20475;-60
2022/06/01 07:07:09;;;;;;;4.93;2.03;;;;;;;;;;5058165;28;20213;-59
2022/06/01 07:09:35;;;;;;;3.47;1.90;;;;;;;;;;5058644;28;20236;-59
2022/06/01 07:12:01;;;;;;;2.33;1.98;;;;;;;;;;5058563;28;20217;-60
2022/06/01 07:14:27;;;;;;;1.83;1.83;;;;;;;;;;5057228;28;20197;-60
2022/06/01 07:16:54;;;;;;;2.83;1.67;;;;;;;;;;5056977;28;20209;-58
2022/06/01 07:19:21;;;;;;;2.15;1.92;;;;;;;;;;5058616;28;20213;-59
2022/06/01 07:21:47;;;;;;;3.53;1.90;;;;;;;;;;5058369;28;20209;-59
2022/06/01 07:24:15;;;;;;;3.95;1.90;;;;;;;;;;5058263;28;20209;-58
2022/06/01 07:26:43;;;;;;;3.17;2.20;;;;;;;;;;5057231;28;20552;-60
2022/06/01 07:29:10;;;;;;;2.00;1.90;;;;;;;;;;5058149;28;20279;-61
2022/06/01 07:31:36;;;;;;;7.53;1.88;;;;;;;;;;5057874;28;20776;-61
2022/06/01 07:34:03;;;;;;;2.15;1.80;;;;;;;;;;5058129;28;20221;-60
2022/06/01 07:36:30;;;;;;;2.38;1.92;;;;;;;;;;5041822;28;20552;-58
2022/06/01 07:44:36;;;;;;;2.03;1.65;;;;;;;;;;5038214;28;20273;-58
2022/06/01 07:47:02;;;;;;;1.83;1.60;;;;;;;;;;5038441;28;20229;-58
2022/06/01 07:49:29;;;;;;;4.00;1.80;;;;;;;;;;5037724;28;20524;-58
2022/06/01 07:51:55;;;;;;;2.05;1.80;;;;;;;;;;5037874;28;20217;-57
2022/06/01 07:54:22;;;;;;;2.47;1.60;;;;;;;;;;5037591;28;20202;-58
2022/06/01 07:56:49;;;;;;;1.77;1.38;;;;;;;;;;5037322;28;20411;-58
2022/06/01 07:59:16;;;;;;;2.67;1.52;;;;;;;;;;5037138;28;20220;-57
2022/06/01 08:01:42;;;;;;;1.55;1.48;;;;;;;;;;5044924;28;20449;-57
2022/06/01 08:04:09;;;;;;;2.15;1.63;;;;;;;;;;5057469;28;20220;-58
2022/06/01 08:06:36;;;;;;;2.97;1.63;;;;;;;;;;5056841;28;20232;-59
2022/06/01 08:09:03;;;;;;;5.25;3.05;;;;;;;;;;5056257;28;20216;-58
2022/06/01 08:14:12;;;;;;;1.48;1.38;;;;;;;;;;5056962;28;20247;-58
2022/06/01 08:16:39;;;;;;;2.15;1.27;;;;;;;;;;5056508;28;20212;-58
2022/06/01 08:19:05;;;;;;;5.97;1.30;;;;;;;;;;5056036;28;20248;-59
2022/06/01 08:21:31;;;;;;;2.33;1.60;;;;;;;;;;5056227;28;20509;-60
2022/06/01 08:23:57;;;;;;;0.70;0.70;;;;;;;;;;5056240;28;20454;-59
2022/06/01 08:26:24;;;;;;;1.40;0.80;;;;;;;;;;5047655;28;20317;-60
2022/06/01 08:28:51;;;;;;;2.08;1.20;;;;;;;;;;5036525;28;20240;-59
2022/06/01 08:31:18;;;;;;;4.13;1.20;;;;;;;;;;5053367;28;20201;-59
2022/06/01 08:33:45;;;;;;;2.15;0.80;;;;;;;;;;5056150;28;20212;-60
2022/06/01 08:36:11;;;;;;;2.78;0.90;;;;;;;;;;5056144;28;20201;-59
2022/06/01 08:38:37;;;;;;;1.20;0.82;;;;;;;;;;5056374;28;20439;-58
2022/06/01 08:41:05;;;;;;;1.02;1.02;;;;;;;;;;5044684;28;20575;-59
2022/06/01 08:43:42;;;;;;;1.42;0.82;;;;;;;;;;5036096;28;21176;-59
2022/06/01 08:46:09;;;;;;;1.25;0.77;;;;;;;;;;5036112;28;20212;-59
2022/06/01 08:48:39;;;;;;;2.28;0.95;;;;;;;;;;5036167;28;20213;-59
2022/06/01 08:51:05;;;;;;;1.60;0.70;;;;;;;;;;5035765;28;20486;-59
2022/06/01 08:53:32;;;;;;;0.93;0.60;;;;;;;;;;5035986;28;20209;-61
2022/06/01 08:56:01;;;;;;;1.58;0.70;;;;;;;;;;5036336;28;20210;-61
2022/06/01 08:58:30;;;;;;;0.70;0.70;;;;;;;;;;5036694;28;20272;-61
2022/06/01 09:00:59;;;;;;;0.80;0.80;;;;;;;;;;5035774;28;20214;-59
2022/06/01 09:03:28;;;;;;;1.85;1.10;;;;;;;;;;5036045;28;20213;-60
2022/06/01 09:06:00;;;;;;;2.63;1.08;;;;;;;;;;5042619;28;20221;-59
2022/06/01 09:08:30;;;;;;;0.90;0.90;;;;;;;;;;5054304;28;20229;-58
2022/06/01 09:11:02;;;;;;;1.17;0.88;;;;;;;;;;5049903;28;20434;-59
2022/06/01 09:13:32;;;;;;;1.00;1.00;;;;;;;;;;5045685;28;20497;-59
2022/06/01 09:16:00;;;;;;;1.95;1.13;;;;;;;;;;5051099;28;20209;-60
2022/06/01 09:18:28;;;;;;;1.27;1.15;;;;;;;;;;5056141;28;20212;-60
2022/06/01 09:23:40;;;;;;;4.63;1.10;;;;;;;;;;5056318;28;20518;-59
2022/06/01 09:26:07;;;;;;;0.73;0.73;;;;;;;;;;5055785;28;20216;-58
2022/06/01 09:28:37;;;;;;;3.28;0.70;;;;;;;;;;5056069;28;20232;-59
2022/06/01 09:31:09;;;;;;;1.05;0.93;;;;;;;;;;5056214;28;20217;-59
2022/06/01 09:33:37;;;;;;;1.10;1.10;;;;;;;;;;5043983;28;20213;-59
2022/06/01 09:36:22;;;;;;;2.17;1.00;;;;;;;;;;5035815;28;20212;-60
2022/06/01 09:38:51;;;;;;;1.77;0.73;;;;;;;;;;5036151;28;20209;-60
2022/06/01 09:41:25;;;;;;;2.28;0.82;;;;;;;;;;5036332;28;20237;-60
2022/06/01 09:43:54;;;;;;;3.40;1.10;;;;;;;;;;5035954;28;20213;-58
2022/06/01 09:46:24;;;;;;;2.10;1.17;;;;;;;;;;5035815;28;20210;-59
2022/06/01 09:48:50;;;;;;;1.27;0.90;;;;;;;;;;5035872;28;20576;-59
2022/06/01 09:51:20;;;;;;;2.00;1.00;;;;;;;;;;5036000;28;20209;-58
2022/06/01 09:53:50;;;;;;;1.05;1.00;;;;;;;;;;5035414;28;20217;-59
2022/06/01 09:56:19;;;;;;;1.90;1.02;;;;;;;;;;5035551;28;20217;-60
2022/06/01 10:07:20;;;;;;;2.13;0.73;;;;;;;;;;5055286;28;20570;-60
2022/06/01 10:09:49;;;;;;;1.67;0.60;;;;;;;;;;5055719;28;20442;-58
2022/06/01 10:12:23;;;;;;;1.05;0.70;;;;;;;;;;5055738;28;20209;-60
2022/06/01 10:14:51;;;;;;;0.73;0.73;;;;;;;;;;5055081;28;20288;-60
2022/06/01 10:17:21;;;;;;;0.80;0.80;;;;;;;;;;5055843;28;20464;-60
2022/06/01 10:19:50;;;;;;;0.80;0.80;;;;;;;;;;5055961;28;20219;-57
2022/06/01 10:22:21;;;;;;;3.15;1.02;;;;;;;;;;5055951;28;20547;-58
2022/06/01 10:24:50;;;;;;;0.60;0.60;;;;;;;;;;5056302;28;20444;-59
2022/06/01 10:27:20;;;;;;;1.05;0.55;;;;;;;;;;5058676;28;20435;-59
2022/06/01 10:29:48;;;;;;;1.20;0.73;;;;;;;;;;5059064;28;20201;-60
2022/06/01 10:32:19;;;;;;;0.60;0.60;;;;;;;;;;5058773;28;20544;-60
2022/06/01 10:34:48;;;;;;;1.23;0.90;;;;;;;;;;5058543;28;20212;-60
2022/06/01 10:37:18;;;;;;;4.07;1.00;;;;;;;;;;5057812;28;20351;-60
2022/06/01 10:39:46;;;;;;;3.20;0.80;;;;;;;;;;5058513;28;20223;-60
2022/06/01 10:42:16;;;;;;;1.80;0.65;;;;;;;;;;5058595;28;20212;-60
2022/06/01 10:44:45;;;;;;;0.95;0.60;;;;;;;;;;5058474;28;20461;-60
2022/06/01 10:47:15;;;;;;;4.15;0.85;;;;;;;;;;5057648;28;20496;-60
2022/06/01 10:49:48;;;;;;;1.27;0.80;;;;;;;;;;5058458;28;20221;-59
2022/06/01 10:52:21;;;;;;;1.45;0.90;;;;;;;;;;5058513;28;20258;-60
2022/06/01 10:54:53;;;;;;;1.48;0.70;;;;;;;;;;5058485;28;20209;-59
2022/06/01 10:57:20;;;;;;;1.65;0.50;;;;;;;;;;5058171;28;20209;-59
2022/06/01 10:59:48;;;;;;;7.35;0.85;;;;;;;;;;5058898;28;20209;-60
2022/06/01 11:02:24;;;;;;;1.40;0.70;;;;;;;;;;5058515;28;20213;-60
2022/06/01 11:05:02;;;;;;;3.40;0.90;;;;;;;;;;5057712;28;20216;-59
2022/06/01 11:07:42;;;;;;;0.70;0.70;;;;;;;;;;5059600;28;20571;-59
2022/06/01 11:10:13;;;;;;;5.47;0.70;;;;;;;;;;5049814;28;20200;-59
2022/06/01 11:12:46;;;;;;;2.30;2.13;;;;;;;;;;5050138;28;20204;-58
2022/06/01 11:15:17;;;;;;;1.10;0.80;;;;;;;;;;5055929;28;20204;-57
2022/06/01 11:17:46;;;;;;;2.25;0.70;;;;;;;;;;5057688;28;20204;-60
2022/06/01 11:20:19;;;;;;;1.13;0.90;;;;;;;;;;5040978;28;20205;-59
2022/06/01 11:22:57;;;;;;;1.52;0.80;;;;;;;;;;5043662;28;20443;-59
2022/06/01 11:25:28;;;;;;;1.30;0.60;;;;;;;;;;5060939;28;20204;-60
2022/06/01 11:28:09;;;;;;;0.68;0.60;;;;;;;;;;5056820;28;20232;-61
2022/06/01 11:30:41;;;;;;;1.98;0.68;;;;;;;;;;5051551;28;20200;-60
2022/06/01 11:33:15;;;;;;;0.70;0.70;;;;;;;;;;5060583;28;20204;-59
2022/06/01 11:35:43;;;;;;;1.05;0.85;;;;;;;;;;5060964;28;20447;-58
2022/06/01 11:38:12;;;;;;;0.70;0.70;;;;;;;;;;5059448;28;20266;-59
2022/06/01 11:40:41;;;;;;;0.88;0.88;;;;;;;;;;5041747;28;20205;-58
2022/06/01 11:43:11;;;;;;;0.80;0.80;;;;;;;;;;5055966;28;20216;-59
2022/06/01 11:45:42;;;;;;;0.93;0.90;;;;;;;;;;5060094;28;20205;-59
2022/06/01 11:48:10;;;;;;;0.75;0.63;;;;;;;;;;5060311;28;20267;-59
2022/06/01 11:50:48;;;;;;;1.05;0.63;;;;;;;;;;5043187;28;20217;-64
2022/06/01 11:53:20;;;;;;;1.20;0.60;;;;;;;;;;5041602;28;20381;-59
2022/06/01 11:55:47;;;;;;;1.00;0.73;;;;;;;;;;5041244;28;20206;-58
2022/06/01 11:58:14;;;;;;;1.05;0.75;;;;;;;;;;5040409;28;20201;-58
2022/06/01 12:00:44;;;;;;;2.85;0.70;;;;;;;;;;5040164;28;20215;-59
2022/06/01 12:03:40;;;;;;;3.03;0.98;;;;;;;;;;5040458;28;20214;-59
2022/06/01 12:06:08;;;;;;;0.65;0.60;;;;;;;;;;4998227;28;20241;-59
2022/06/01 12:08:38;;;;;;;2.58;0.80;;;;;;;;;;5030560;28;20677;-58
2022/06/01 12:11:06;;;;;;;3.08;0.80;;;;;;;;;;5039695;28;20536;-58
2022/06/01 12:13:33;;;;;;;0.90;0.73;;;;;;;;;;5040339;28;20205;-59
2022/06/01 12:16:09;;;;;;;1.55;0.80;;;;;;;;;;5040031;28;20252;-59
2022/06/01 12:18:36;;;;;;;1.30;0.90;;;;;;;;;;5040618;28;20201;-61
2022/06/01 12:21:18;;;;;;;2.83;0.55;;;;;;;;;;5039560;28;20216;-60
2022/06/01 12:29:53;;;;;;;1.02;0.68;;;;;;;;;;5044605;28;20256;-61
2022/06/01 12:32:21;;;;;;;0.80;0.60;;;;;;;;;;5043486;28;20209;-60
2022/06/01 12:35:00;;;;;;;0.93;0.63;;;;;;;;;;5050712;28;20200;-59
2022/06/01 12:37:31;;;;;;;0.73;0.50;;;;;;;;;;5059190;28;20250;-60
2022/06/01 12:39:59;;;;;;;4.93;0.90;;;;;;;;;;5059595;28;20211;-59
2022/06/01 12:42:28;;;;;;;3.42;0.80;;;;;;;;;;5046579;28;20209;-60
2022/06/01 12:44:56;;;;;;;2.05;0.80;;;;;;;;;;5039602;28;20212;-58
2022/06/01 12:47:25;;;;;;;3.20;0.68;;;;;;;;;;5046556;28;20201;-59
2022/06/01 12:49:51;;;;;;;1.75;0.60;;;;;;;;;;5045065;28;20213;-59
2022/06/01 12:52:18;;;;;;;1.58;0.77;;;;;;;;;;5046256;28;20209;-59
2022/06/01 12:54:53;;;;;;;2.55;0.80;;;;;;;;;;5059497;28;20207;-59
2022/06/01 12:57:24;;;;;;;1.30;0.68;;;;;;;;;;5059216;28;20227;-59
2022/06/01 12:59:56;;;;;;;3.88;0.60;;;;;;;;;;5059609;28;20575;-59
2022/06/01 13:02:23;;;;;;;1.35;0.60;;;;;;;;;;5059040;28;20266;-58
2022/06/01 13:04:54;;;;;;;0.60;0.60;;;;;;;;;;5058947;28;20213;-59
2022/06/01 13:07:23;;;;;;;1.20;0.80;;;;;;;;;;5059311;28;20291;-59
2022/06/01 13:09:57;;;;;;;1.25;0.70;;;;;;;;;;5059050;28;20225;-58
2022/06/01 13:12:28;;;;;;;1.30;0.88;;;;;;;;;;5059005;28;20249;-59
2022/06/01 13:14:54;;;;;;;2.83;0.70;;;;;;;;;;5059568;28;20231;-59
2022/06/01 13:17:25;;;;;;;0.88;0.68;;;;;;;;;;5058913;28;20204;-59
2022/06/01 13:19:59;;;;;;;0.90;0.80;;;;;;;;;;5058731;28;20204;-59
2022/06/01 13:22:28;;;;;;;0.60;0.60;;;;;;;;;;5059457;28;20213;-60
2022/06/01 13:24:56;;;;;;;1.95;0.70;;;;;;;;;;5041737;28;20209;-60
2022/06/01 13:27:23;;;;;;;0.90;0.90;;;;;;;;;;5039107;28;20205;-58
2022/06/01 13:29:52;;;;;;;1.02;0.90;;;;;;;;;;5043293;28;20216;-59
2022/06/01 13:32:19;;;;;;;1.40;0.70;;;;;;;;;;5059189;28;20204;-59
2022/06/01 13:34:47;;;;;;;1.75;0.75;;;;;;;;;;5046938;28;20536;-60
2022/06/01 13:37:18;;;;;;;2.45;0.95;;;;;;;;;;5038982;28;20244;-61
2022/06/01 13:39:50;;;;;;;0.82;0.70;;;;;;;;;;5039068;28;20201;-59
2022/06/01 13:42:22;;;;;;;2.00;0.90;;;;;;;;;;5039260;28;20524;-60
2022/06/01 13:44:50;;;;;;;3.25;0.77;;;;;;;;;;5038541;28;20231;-60
2022/06/01 13:47:24;;;;;;;1.55;0.70;;;;;;;;;;5038195;28;20205;-61
2022/06/01 13:49:52;;;;;;;1.23;0.70;;;;;;;;;;5038566;28;20231;-59
2022/06/01 13:52:19;;;;;;;1.65;0.88;;;;;;;;;;5038852;28;20205;-61
2022/06/01 13:55:05;;;;;;;0.93;0.80;;;;;;;;;;5050576;28;20258;-61
2022/06/01 13:57:31;;;;;;;1.27;0.90;;;;;;;;;;5058669;28;20201;-61
2022/06/01 14:00:01;;;;;;;0.63;0.63;;;;;;;;;;5061504;28;20205;-61
2022/06/01 14:02:32;;;;;;;4.00;0.88;;;;;;;;;;5062305;28;20275;-60
2022/06/01 14:05:02;;;;;;;2.25;0.93;;;;;;;;;;5061805;28;20232;-60
2022/06/01 14:07:41;;;;;;;0.80;0.80;;;;;;;;;;5061998;28;20216;-60
2022/06/01 14:10:08;;;;;;;3.03;0.77;;;;;;;;;;5062503;28;20225;-61
2022/06/01 14:12:36;;;;;;;3.20;1.02;;;;;;;;;;5062403;28;20433;-58
2022/06/01 14:15:03;;;;;;;1.55;0.90;;;;;;;;;;5062044;28;20212;-60
2022/06/01 14:17:30;;;;;;;1.40;1.00;;;;;;;;;;5058608;28;20562;-61
2022/06/01 14:19:56;;;;;;;1.52;0.80;;;;;;;;;;5059567;28;20204;-60
2022/06/01 14:22:22;;;;;;;3.47;0.93;;;;;;;;;;5059702;28;20212;-60
2022/06/01 14:30:19;;;;;;;6.05;1.23;;;;;;;;;;5059398;28;20276;-59
2022/06/01 14:32:45;;;;;;;2.17;0.95;;;;;;;;;;5059378;28;20232;-59
2022/06/01 14:35:11;;;;;;;4.05;1.02;;;;;;;;;;5059403;28;20254;-60
2022/06/01 14:37:38;;;;;;;1.35;1.10;;;;;;;;;;5047529;28;20213;-59
2022/06/01 14:40:06;;;;;;;1.65;0.95;;;;;;;;;;5039131;28;20205;-59
2022/06/01 14:42:32;;;;;;;2.38;0.88;;;;;;;;;;5039013;28;20220;-60
2022/06/01 14:44:59;;;;;;;2.38;1.00;;;;;;;;;;5039005;28;20209;-60
2022/06/01 14:47:25;;;;;;;1.95;0.90;;;;;;;;;;5038070;28;20224;-60
2022/06/01 14:49:51;;;;;;;1.27;0.90;;;;;;;;;;5038853;28;20244;-59
2022/06/01 14:52:17;;;;;;;5.10;1.05;;;;;;;;;;5038936;28;20246;-58
2022/06/01 14:54:44;;;;;;;2.75;1.05;;;;;;;;;;5038699;28;20271;-58
2022/06/01 14:57:12;;;;;;;1.25;1.02;;;;;;;;;;5038279;28;20271;-59
2022/06/01 14:59:38;;;;;;;2.90;1.20;;;;;;;;;;5038686;28;20512;-58
2022/06/01 15:02:05;;;;;;;0.98;0.90;;;;;;;;;;5039071;28;20208;-59
2022/06/01 15:04:33;;;;;;;2.63;1.30;;;;;;;;;;5047558;28;20212;-58
2022/06/01 15:06:59;;;;;;;2.15;0.70;;;;;;;;;;5038028;28;20236;-60
2022/06/01 15:09:26;;;;;;;5.18;1.00;;;;;;;;;;5037217;28;20229;-60
2022/06/01 15:11:52;;;;;;;2.13;0.82;;;;;;;;;;5037418;28;20528;-60
2022/06/01 15:14:21;;;;;;;1.95;1.10;;;;;;;;;;5045470;28;20288;-60
2022/06/01 15:16:49;;;;;;;2.83;0.95;;;;;;;;;;5037437;28;20280;-60
2022/06/01 15:19:17;;;;;;;4.03;1.00;;;;;;;;;;5037801;28;20209;-58
2022/06/01 15:21:44;;;;;;;3.53;1.00;;;;;;;;;;5038580;28;20291;-59
2022/06/01 15:24:10;;;;;;;1.38;0.93;;;;;;;;;;5038164;28;20655;-60
2022/06/01 15:26:37;;;;;;;3.92;0.80;;;;;;;;;;5037897;28;20533;-61
2022/06/01 15:30:57;;;;;;;1.63;1.00;;;;;;;;;;5037593;28;20228;-60
2022/06/01 15:40:04;;;;;;;3.50;1.10;;;;;;;;;;5041641;28;20212;-60